Albany, New York
Traffic Map
Current Weather Conditions
Albany, New York
Overcast
Overcast
10°
Feels Like: 10°
Wind Chill: 10° Ceiling: 2800
Heat Index: 10° Visibility: 10mi
Dew Point: Wind: 12mph
Humidity: 83% Direction: 10° (N)
Pressure: 30.07in Gusts: 0mph
Raw Report DataKALB 221151Z 01010KT 10SM SCT011 OVC028 10/07 A3007 RMK AO2 SLP182 SCT V BKN 70042 T01000072 10100 20100 53014
Traffic Incident Summary
Active as of:
Severity:
Category:
InformationThere was an issue retrieving the traffic information for this location. Please try a different location or try again shortly.
Advertisements
Track Severe Weather on mobile